Time;durP1;ratioP1;P1;durP2;ratioP2;P2;SDS_P1;SDS_P2;PMS_P1;PMS_P2;Temp;Humidity;BMP_temperature;BMP_pressure;BME280_temperature;BME280_humidity;BME280_pressure;Samples;Min_cycle;Max_cycle;Signal;HPM_P1;HPM_P2
2023/01/13 00:01:23;;;;;;;29.80;13.10;;;;;;;-3.72;81.68;100097.45;105847;1268;1003571;-39
2023/01/13 00:03:51;;;;;;;35.40;13.50;;;;;;;-3.71;81.65;100092.25;106670;1271;74053;-39
2023/01/13 00:06:20;;;;;;;33.80;14.20;;;;;;;-3.72;81.61;100095.64;105813;1271;1003734;-39
2023/01/13 00:08:49;;;;;;;39.10;14.20;;;;;;;-3.78;81.64;100096.85;106618;1268;62056;-39
2023/01/13 00:11:16;;;;;;;29.40;13.50;;;;;;;-3.77;81.59;100094.20;106606;1267;73175;-39
2023/01/13 00:13:44;;;;;;;28.40;12.90;;;;;;;-3.68;81.52;100100.61;106615;1268;69899;-39
2023/01/13 00:16:14;;;;;;;28.40;13.10;;;;;;;-3.65;81.38;100106.15;106588;1268;74069;-39
2023/01/13 00:18:41;;;;;;;28.90;12.70;;;;;;;-3.68;81.19;100102.20;106547;1268;60737;-39
2023/01/13 00:21:08;;;;;;;31.60;13.70;;;;;;;-3.73;81.29;100099.29;105697;1268;1003475;-39
2023/01/13 00:23:36;;;;;;;31.00;13.80;;;;;;;-3.74;81.43;100101.23;106577;1268;75057;-39
2023/01/13 00:26:06;;;;;;;28.40;12.40;;;;;;;-3.75;81.12;100098.27;106469;1271;70122;-39
2023/01/13 00:28:33;;;;;;;29.10;13.40;;;;;;;-3.72;81.11;100098.97;106481;1268;73448;-39
2023/01/13 00:31:05;;;;;;;31.00;12.70;;;;;;;-3.71;81.22;100095.33;106590;1269;60954;-39
2023/01/13 00:33:33;;;;;;;31.90;14.10;;;;;;;-3.69;81.42;100096.08;106604;1268;62638;-39
2023/01/13 00:36:01;;;;;;;41.90;14.40;;;;;;;-3.68;81.44;100094.83;106657;1271;73711;-39
2023/01/13 00:38:29;;;;;;;34.60;13.60;;;;;;;-3.68;81.27;100092.19;106625;1268;70713;-39
2023/01/13 00:40:57;;;;;;;28.90;12.30;;;;;;;-3.69;81.25;100095.30;106664;1267;73723;-39
2023/01/13 00:43:25;;;;;;;27.00;11.50;;;;;;;-3.68;81.05;100094.61;106673;1268;63554;-39
2023/01/13 00:45:53;;;;;;;25.70;12.70;;;;;;;-3.66;80.95;100087.73;106615;1268;59537;-39
2023/01/13 00:48:22;;;;;;;27.20;13.60;;;;;;;-3.66;81.01;100087.43;106617;1268;74479;-39
2023/01/13 00:50:56;;;;;;;38.40;13.80;;;;;;;-3.63;81.00;100082.27;106655;1268;69007;-39
2023/01/13 00:53:23;;;;;;;30.20;13.10;;;;;;;-3.63;80.88;100083.29;106533;1269;72799;-39
2023/01/13 00:56:19;;;;;;;34.40;13.70;;;;;;;-3.62;81.09;100077.58;106534;1273;62291;-39
2023/01/13 00:59:01;;;;;;;31.40;12.40;;;;;;;-3.50;80.89;100075.73;106620;1268;62443;-39
2023/01/13 01:01:28;;;;;;;30.40;12.80;;;;;;;-3.41;80.77;100076.92;106596;1268;75343;-39
2023/01/13 01:03:55;;;;;;;33.40;13.20;;;;;;;-3.37;80.48;100072.64;106511;1267;70658;-39
2023/01/13 01:06:24;;;;;;;37.20;13.40;;;;;;;-3.33;80.42;100067.31;106483;1268;74003;-39
2023/01/13 01:08:52;;;;;;;28.10;13.60;;;;;;;-3.33;80.42;100060.27;105041;1268;1003636;-39
2023/01/13 01:11:25;;;;;;;36.60;12.80;;;;;;;-3.31;80.27;100059.33;105789;1268;1003017;-39
2023/01/13 01:13:53;;;;;;;43.00;13.50;;;;;;;-3.31;80.00;100054.72;106579;1268;73780;-39
2023/01/13 01:16:22;;;;;;;28.80;11.50;;;;;;;-3.27;79.75;100047.91;106634;1268;68985;-39
2023/01/13 01:18:49;;;;;;;25.60;12.70;;;;;;;-3.19;79.43;100047.34;106637;1271;74114;-39
2023/01/13 01:21:17;;;;;;;34.80;12.50;;;;;;;-3.18;79.06;100049.48;106577;1268;61793;-39
2023/01/13 01:23:44;;;;;;;30.10;11.90;;;;;;;-3.23;78.89;100052.24;106597;1267;61619;-39
2023/01/13 01:26:19;;;;;;;30.30;12.00;;;;;;;-3.26;79.02;100054.27;105856;1268;1002980;-39
2023/01/13 01:28:47;;;;;;;30.50;12.60;;;;;;;-3.31;79.00;100055.36;106610;1269;69921;-39
2023/01/13 01:31:19;;;;;;;30.40;12.90;;;;;;;-3.32;79.05;100050.63;106601;1268;74998;-39
2023/01/13 01:33:46;;;;;;;30.60;11.60;;;;;;;-3.30;78.91;100048.73;106584;1267;62845;-39
2023/01/13 01:36:15;;;;;;;25.80;11.70;;;;;;;-3.22;78.92;100051.52;106634;1267;62457;-39
2023/01/13 01:38:42;;;;;;;31.80;11.10;;;;;;;-3.12;78.80;100053.98;106651;1271;74005;-39
2023/01/13 01:41:20;;;;;;;28.40;11.90;;;;;;;-3.08;78.60;100052.69;106537;1267;70067;-39
2023/01/13 01:44:01;;;;;;;28.30;12.10;;;;;;;-3.13;78.08;100053.44;106574;1267;74289;-39
2023/01/13 01:46:36;;;;;;;35.10;12.20;;;;;;;-3.19;78.18;100051.69;105135;1271;1003038;-38
2023/01/13 01:49:05;;;;;;;24.80;11.70;;;;;;;-3.25;78.21;100045.08;106563;1268;61209;-39
2023/01/13 01:51:36;;;;;;;26.50;11.20;;;;;;;-3.27;78.31;100044.35;105850;1268;1003008;-39
2023/01/13 01:54:03;;;;;;;31.60;11.80;;;;;;;-3.17;78.19;100044.34;106564;1272;69262;-39
2023/01/13 01:56:32;;;;;;;32.80;11.10;;;;;;;-3.11;78.28;100044.17;106579;1267;73751;-38
2023/01/13 01:58:59;;;;;;;28.40;11.40;;;;;;;-3.08;78.18;100043.95;106617;1268;59710;-39
2023/01/13 02:01:27;;;;;;;23.50;11.20;;;;;;;-3.08;77.87;100043.58;106539;1268;61801;-39
2023/01/13 02:04:00;;;;;;;28.70;12.20;;;;;;;-3.12;77.60;100041.30;106695;1271;74812;-38
2023/01/13 02:06:28;;;;;;;22.50;11.70;;;;;;;-3.20;77.51;100037.84;106616;1273;68006;-39
2023/01/13 02:08:56;;;;;;;25.50;12.30;;;;;;;-3.25;77.89;100031.48;106594;1268;71343;-39
2023/01/13 02:14:18;;;;;;;26.90;12.20;;;;;;;-3.10;77.51;100023.13;106602;1267;60222;-39
2023/01/13 02:16:51;;;;;;;28.80;12.00;;;;;;;-3.10;77.47;100025.03;106631;1271;72257;-39
2023/01/13 02:19:28;;;;;;;27.90;12.30;;;;;;;-3.10;77.51;100023.60;106607;1269;69942;-39
2023/01/13 02:22:12;;;;;;;23.40;11.80;;;;;;;-3.12;77.53;100014.16;106566;1269;73710;-38
2023/01/13 02:24:55;;;;;;;24.30;11.70;;;;;;;-3.10;77.68;100011.52;106485;1269;61088;-39
2023/01/13 02:27:41;;;;;;;30.00;11.30;;;;;;;-3.07;77.63;100008.62;107133;1260;62548;-39
2023/01/13 02:33:26;;;;;;;24.90;11.90;;;;;;;-2.99;77.37;100004.52;107234;1257;69890;-39
2023/01/13 02:35:59;;;;;;;28.00;11.90;;;;;;;-2.94;77.27;100002.02;107153;1259;74084;-39
2023/01/13 02:38:36;;;;;;;32.10;12.60;;;;;;;-2.91;77.34;100003.86;107175;1260;59749;-39
2023/01/13 02:44:07;;;;;;;29.90;14.00;;;;;;;-2.86;77.13;99998.69;107080;1262;75350;-39
2023/01/13 02:46:37;;;;;;;27.70;13.90;;;;;;;-2.88;77.22;99998.83;107068;1258;69890;-39
2023/01/13 02:49:06;;;;;;;29.20;12.80;;;;;;;-2.89;77.02;99993.79;107139;1258;72848;-39
2023/01/13 02:51:33;;;;;;;33.60;13.20;;;;;;;-2.89;76.86;99985.71;107048;1258;60062;-39
2023/01/13 02:54:13;;;;;;;22.60;13.00;;;;;;;-2.80;76.73;99999.31;107055;1258;61464;-39
2023/01/13 02:56:42;;;;;;;34.80;14.50;;;;;;;-2.75;76.93;99998.06;107260;1260;72236;-39
2023/01/13 02:59:09;;;;;;;40.60;14.70;;;;;;;-2.74;77.01;99995.85;107235;1261;71172;-39
2023/01/13 03:01:36;;;;;;;36.60;14.70;;;;;;;-2.72;76.88;99999.04;106454;1259;1003716;-39
2023/01/13 03:04:14;;;;;;;36.10;15.30;;;;;;;-2.69;76.80;99998.58;107227;1260;59485;-39
2023/01/13 03:06:49;;;;;;;46.60;16.20;;;;;;;-2.68;76.71;100000.71;107229;1261;60199;-39
2023/01/13 03:09:28;;;;;;;37.40;15.10;;;;;;;-2.63;76.64;100002.65;107226;1260;74146;-39
2023/01/13 03:12:09;;;;;;;39.00;14.40;;;;;;;-2.53;76.37;99997.13;107087;1262;70410;-38
2023/01/13 03:14:57;;;;;;;37.30;14.90;;;;;;;-2.53;76.30;99993.56;107277;1261;73994;-38
2023/01/13 03:17:31;;;;;;;33.60;14.90;;;;;;;-2.55;76.30;99991.70;107248;1257;61296;-38
2023/01/13 03:20:23;;;;;;;37.70;14.80;;;;;;;-2.58;76.22;99996.67;107132;1260;61366;-39
2023/01/13 03:22:54;;;;;;;35.00;15.40;;;;;;;-2.61;76.22;99995.64;106385;1260;1002978;-39
2023/01/13 03:25:25;;;;;;;32.70;14.90;;;;;;;-2.63;76.38;99999.73;107029;1262;69922;-39
2023/01/13 03:27:55;;;;;;;39.70;15.10;;;;;;;-2.61;76.24;99991.51;107215;1262;71385;-39
2023/01/13 03:30:33;;;;;;;43.30;14.70;;;;;;;-2.51;76.15;99984.92;107189;1260;60325;-39
2023/01/13 03:33:04;;;;;;;39.90;14.70;;;;;;;-2.47;76.08;99986.27;106967;1263;61356;-40
2023/01/13 03:35:37;;;;;;;47.10;16.40;;;;;;;-2.48;76.06;99986.73;107110;1259;75495;-40
2023/01/13 03:38:18;;;;;;;42.60;15.50;;;;;;;-2.53;76.02;99985.71;107170;1258;69979;-40
2023/01/13 03:40:50;;;;;;;46.80;15.80;;;;;;;-2.57;76.12;99985.27;107192;1257;74333;-40
2023/01/13 03:46:08;;;;;;;40.00;15.90;;;;;;;-2.63;76.36;99998.50;107039;1261;61478;-40
2023/01/13 03:48:35;;;;;;;;;;;;;;;-2.59;76.38;99995.23;107267;1257;74382;-40
2023/01/13 03:51:06;;;;;;;41.90;14.80;;;;;;;-2.55;76.49;99997.91;107064;1262;68051;-40
2023/01/13 03:53:39;;;;;;;41.70;15.40;;;;;;;-2.53;76.80;99990.80;107235;1260;74362;-39
2023/01/13 03:56:09;;;;;;;35.80;14.90;;;;;;;-2.49;76.44;99989.50;107223;1262;60543;-39
2023/01/13 03:58:46;;;;;;;40.80;15.40;;;;;;;-2.48;76.56;99986.52;107075;1256;62290;-39
2023/01/13 04:01:23;;;;;;;35.20;15.70;;;;;;;-2.49;76.31;99986.04;107211;1257;74900;-39
2023/01/13 04:03:56;;;;;;;51.20;16.30;;;;;;;-2.55;76.44;99984.15;107211;1257;70069;-39
2023/01/13 04:06:45;;;;;;;41.60;15.40;;;;;;;-2.55;76.37;99981.38;107233;1260;73802;-39
2023/01/13 04:09:27;;;;;;;37.00;12.20;;;;;;;-2.50;76.23;99985.99;106993;1258;60456;-39
2023/01/13 04:12:02;;;;;;;40.60;16.50;;;;;;;-2.53;76.30;99980.34;106983;1258;61988;-39
2023/01/13 04:14:29;;;;;;;41.20;17.10;;;;;;;-2.60;76.59;99981.74;107232;1257;75205;-39
2023/01/13 04:16:57;;;;;;;36.60;16.60;;;;;;;-2.62;76.78;99986.04;107082;1259;67358;-39
2023/01/13 04:19:24;;;;;;;42.30;17.60;;;;;;;-2.63;76.84;99982.90;107151;1260;74938;-39
2023/01/13 04:21:51;;;;;;;36.10;15.90;;;;;;;-2.59;76.83;99981.38;107098;1260;61139;-39
2023/01/13 04:24:18;;;;;;;46.10;17.40;;;;;;;-2.50;76.73;99984.45;107138;1259;60328;-39
2023/01/13 04:26:45;;;;;;;38.60;16.90;;;;;;;-2.42;76.79;99982.79;107139;1260;75449;-39
2023/01/13 04:29:12;;;;;;;40.80;17.60;;;;;;;-2.37;76.72;99981.80;107226;1260;68610;-38
2023/01/13 04:31:41;;;;;;;41.40;17.80;;;;;;;-2.37;76.58;99986.64;107188;1260;73789;-39
2023/01/13 04:34:09;;;;;;;49.10;19.40;;;;;;;-2.39;76.53;99985.35;107203;1257;60410;-39
2023/01/13 04:36:36;;;;;;;47.30;19.40;;;;;;;-2.41;76.31;99992.61;107145;1257;60241;-39
2023/01/13 04:39:04;;;;;;;49.40;18.00;;;;;;;-2.50;76.26;99993.05;107124;1260;75480;-39
2023/01/13 04:41:56;;;;;;;43.20;17.80;;;;;;;-2.50;76.28;99997.20;107099;1260;69821;-39
2023/01/13 04:44:18;;;;;;;42.90;18.20;;;;;;;-2.42;76.25;99999.04;107122;1260;74289;-39
2023/01/13 04:46:45;;;;;;;52.10;19.90;;;;;;;-2.42;76.51;99999.62;107173;1257;61151;-39
2023/01/13 04:49:12;;;;;;;46.50;19.10;;;;;;;-2.40;76.59;100001.44;107221;1256;60354;-39
2023/01/13 04:51:39;;;;;;;50.00;19.30;;;;;;;-2.39;76.54;99998.05;107234;1256;74879;-39
2023/01/13 04:54:09;;;;;;;47.10;19.20;;;;;;;-2.39;76.36;99993.48;106500;1257;1003695;-39
2023/01/13 04:56:36;;;;;;;;;;;;;;;-2.43;76.32;99990.65;107159;1257;73727;-39
2023/01/13 04:59:03;;;;;;;47.70;18.60;;;;;;;-2.48;76.54;99993.17;107225;1260;63343;-39
2023/01/13 05:01:31;;;;;;;51.00;18.90;;;;;;;-2.43;76.52;99997.55;107165;1261;61651;-39
2023/01/13 05:03:58;;;;;;;54.00;21.20;;;;;;;-2.39;76.49;99998.58;107190;1257;76169;-39
2023/01/13 05:06:25;;;;;;;47.90;19.80;;;;;;;-2.37;76.47;100000.02;107097;1258;70093;-39
2023/01/13 05:08:52;;;;;;;53.20;21.50;;;;;;;-2.37;76.53;100003.16;107281;1258;74077;-39
2023/01/13 05:17:02;;;;;;;49.10;19.30;;;;;;;-2.39;76.41;100000.44;107203;1258;75984;-39
2023/01/13 05:19:33;;;;;;;52.60;20.60;;;;;;;-2.32;76.38;99999.55;107114;1261;70208;-39
2023/01/13 05:27:33;;;;;;;51.40;21.60;;;;;;;-2.30;76.42;99999.47;107230;1257;61497;-39
2023/01/13 05:30:00;;;;;;;53.80;21.80;;;;;;;-2.34;76.21;100000.36;107230;1257;75760;-39
2023/01/13 05:32:27;;;;;;;41.50;20.30;;;;;;;-2.39;76.22;99998.37;107234;1257;67887;-39
2023/01/13 05:34:54;;;;;;;55.40;21.00;;;;;;;-2.41;76.35;99998.25;107224;1257;73993;-39
2023/01/13 05:37:22;;;;;;;48.50;20.20;;;;;;;-2.40;76.35;99994.75;107051;1257;61620;-39
2023/01/13 05:45:23;;;;;;;48.30;21.20;;;;;;;-2.31;76.49;100000.36;107093;1258;67836;-39
2023/01/13 05:47:50;;;;;;;51.80;22.40;;;;;;;-2.30;76.58;99997.56;107237;1258;73796;-39
2023/01/13 05:50:17;;;;;;;49.80;22.20;;;;;;;-2.28;76.52;99998.73;107202;1259;60939;-39
2023/01/13 05:52:44;;;;;;;50.20;22.00;;;;;;;-2.28;76.37;99999.02;107203;1260;60472;-39
2023/01/13 05:55:11;;;;;;;45.30;19.50;;;;;;;-2.37;76.33;99984.89;107201;1257;75305;-39
2023/01/13 05:57:39;;;;;;;52.60;20.90;;;;;;;-2.21;75.93;99998.50;107214;1258;69224;-39
2023/01/13 06:00:08;;;;;;;44.50;19.30;;;;;;;-2.26;75.83;100001.19;107253;1257;75055;-39
2023/01/13 06:02:38;;;;;;;41.30;19.10;;;;;;;-2.30;76.19;100004.88;107444;1257;61444;-39
2023/01/13 06:05:06;;;;;;;44.70;19.30;;;;;;;-2.29;76.53;100004.30;107394;1256;61654;-39
2023/01/13 06:07:33;;;;;;;45.30;18.60;;;;;;;-2.27;76.46;100008.02;107420;1257;76176;-39
2023/01/13 06:10:00;;;;;;;46.00;19.20;;;;;;;-2.30;76.29;100010.30;107370;1259;70152;-39
2023/01/13 06:12:28;;;;;;;48.50;19.40;;;;;;;-2.31;76.48;100014.92;106499;1259;1003594;-40
2023/01/13 06:14:55;;;;;;;36.90;17.60;;;;;;;-2.25;76.39;100019.45;107259;1257;61117;-40
2023/01/13 06:17:22;;;;;;;37.30;16.60;;;;;;;-2.16;76.03;100023.10;107383;1258;60287;-38
2023/01/13 06:19:49;;;;;;;39.50;17.10;;;;;;;-2.15;75.80;100021.73;107369;1259;75246;-39
2023/01/13 06:22:31;;;;;;;38.80;17.80;;;;;;;-2.18;76.03;100021.77;107373;1258;70202;-39
2023/01/13 06:24:58;;;;;;;38.10;18.60;;;;;;;-2.22;76.01;100019.09;107254;1257;74306;-39
2023/01/13 06:27:25;;;;;;;34.20;17.00;;;;;;;-2.26;76.03;100021.95;106627;1257;1003050;-39
2023/01/13 06:29:52;;;;;;;37.80;18.10;;;;;;;-2.30;76.08;100019.60;107248;1257;60338;-39
2023/01/13 06:32:25;;;;;;;33.70;17.80;;;;;;;-2.33;76.14;100023.41;106649;1259;1003213;-39
2023/01/13 06:34:55;;;;;;;35.10;16.60;;;;;;;-2.30;76.18;100023.20;107327;1257;69219;-40
2023/01/13 06:37:24;;;;;;;34.10;16.20;;;;;;;-2.20;75.99;100027.33;107317;1257;74958;-40
2023/01/13 06:39:55;;;;;;;32.90;16.00;;;;;;;-2.16;75.87;100030.02;107232;1257;61199;-40
2023/01/13 06:45:19;;;;;;;42.10;17.60;;;;;;;-2.23;76.01;100023.61;107371;1257;74381;-39
2023/01/13 06:47:46;;;;;;;34.00;17.10;;;;;;;-2.26;76.11;100028.10;107460;1257;70069;-39
2023/01/13 06:50:15;;;;;;;40.50;17.70;;;;;;;-2.27;76.13;100027.25;107370;1258;74725;-39
2023/01/13 06:52:42;;;;;;;38.30;18.00;;;;;;;-2.27;76.07;100022.27;107350;1256;63321;-39
2023/01/13 06:55:10;;;;;;;33.40;15.80;;;;;;;-2.23;76.00;100023.13;107305;1256;61470;-39
2023/01/13 06:57:53;;;;;;;33.60;15.10;;;;;;;-2.16;75.68;100022.89;107219;1256;74997;-39
2023/01/13 07:00:20;;;;;;;32.80;16.80;;;;;;;-2.20;75.67;100025.17;107300;1260;70345;-39
2023/01/13 07:02:48;;;;;;;36.00;15.70;;;;;;;-2.25;75.90;100027.36;107291;1257;74054;-39
2023/01/13 07:05:16;;;;;;;36.40;18.10;;;;;;;-2.25;76.26;100032.95;107289;1257;60948;-38
2023/01/13 07:07:43;;;;;;;36.50;16.90;;;;;;;-2.25;76.18;100033.96;107357;1255;60390;-39
2023/01/13 07:10:12;;;;;;;40.30;17.80;;;;;;;-2.25;76.01;100037.09;107264;1257;75222;-39
2023/01/13 07:15:26;;;;;;;34.50;15.50;;;;;;;-2.24;76.15;100040.23;107153;1257;74019;-38
2023/01/13 07:17:53;;;;;;;35.50;16.30;;;;;;;-2.16;75.98;100037.35;107205;1257;60164;-39
2023/01/13 07:20:20;;;;;;;40.30;16.10;;;;;;;-2.12;75.85;100042.30;107211;1257;62897;-39
2023/01/13 07:22:48;;;;;;;31.90;15.70;;;;;;;-2.13;75.94;100047.08;107269;1260;75980;-39
2023/01/13 07:25:15;;;;;;;32.30;16.90;;;;;;;-2.15;76.07;100047.70;106953;1257;69738;-39
2023/01/13 07:27:42;;;;;;;42.70;18.10;;;;;;;-2.17;76.14;100048.98;107276;1256;73042;-39
2023/01/13 07:30:10;;;;;;;43.40;18.30;;;;;;;-2.21;76.15;100045.13;107290;1257;60338;-39
2023/01/13 07:32:37;;;;;;;33.40;16.90;;;;;;;-2.24;76.28;100039.44;107352;1256;61647;-39
2023/01/13 07:35:05;;;;;;;35.40;16.70;;;;;;;-2.21;76.27;100033.65;107304;1260;74887;-39
2023/01/13 07:37:33;;;;;;;34.00;16.10;;;;;;;-2.13;76.12;100031.73;107330;1256;70240;-39
2023/01/13 07:40:02;;;;;;;37.20;17.70;;;;;;;-2.10;76.21;100033.33;107249;1258;73995;-39
2023/01/13 07:45:14;;;;;;;39.10;18.20;;;;;;;-2.08;76.34;100029.24;107235;1257;60320;-39
2023/01/13 07:47:42;;;;;;;40.10;17.30;;;;;;;-2.05;76.39;100027.98;107215;1257;75343;-41
2023/01/13 07:50:09;;;;;;;50.20;19.80;;;;;;;-2.01;76.52;100026.84;107211;1257;70693;-39
2023/01/13 07:52:36;;;;;;;45.00;20.10;;;;;;;-1.97;76.50;100023.45;107209;1257;71764;-39
2023/01/13 07:55:04;;;;;;;40.10;17.30;;;;;;;-1.88;76.24;100027.08;107126;1258;62295;-39
2023/01/13 07:57:31;;;;;;;40.90;18.80;;;;;;;-1.79;75.84;100019.62;107229;1260;61302;-39
2023/01/13 07:59:58;;;;;;;40.20;18.70;;;;;;;-1.76;75.66;100021.33;107227;1256;75230;-39
2023/01/13 08:02:26;;;;;;;43.70;19.50;;;;;;;-1.73;75.83;100025.02;107224;1258;70678;-39
2023/01/13 08:04:53;;;;;;;50.10;20.80;;;;;;;-1.69;75.94;100023.58;107088;1257;74020;-39
2023/01/13 08:07:20;;;;;;;52.30;20.90;;;;;;;-1.66;75.64;100021.94;107104;1260;60297;-39
2023/01/13 08:09:48;;;;;;;49.10;20.90;;;;;;;-1.70;75.43;100018.53;107069;1256;60893;-39
2023/01/13 08:15:01;;;;;;;42.50;20.90;;;;;;;-1.77;75.45;100004.41;107107;1256;70531;-39
2023/01/13 08:17:28;;;;;;;43.30;19.40;;;;;;;-1.65;75.73;100015.19;107261;1255;74014;-39
2023/01/13 08:19:55;;;;;;;45.30;20.40;;;;;;;-1.63;75.66;100013.32;107205;1256;61493;-39
2023/01/13 08:22:23;;;;;;;53.30;21.10;;;;;;;-1.61;75.81;100009.56;107247;1256;61441;-39
2023/01/13 08:24:50;;;;;;;47.90;22.30;;;;;;;-1.58;75.74;100005.85;107287;1256;75224;-39
2023/01/13 08:27:19;;;;;;;46.70;21.70;;;;;;;-1.56;75.63;100009.40;107219;1256;68636;-39
2023/01/13 08:29:46;;;;;;;41.00;21.30;;;;;;;-1.57;75.51;100004.25;107259;1256;72762;-39
2023/01/13 08:32:13;;;;;;;45.90;21.30;;;;;;;-1.54;75.40;100006.92;107277;1256;61363;-40
2023/01/13 08:34:40;;;;;;;48.40;21.50;;;;;;;-1.44;75.35;100011.60;107187;1261;61389;-39
2023/01/13 08:37:07;;;;;;;44.50;21.40;;;;;;;-1.39;75.11;100011.72;107197;1260;72405;-39
2023/01/13 08:39:35;;;;;;;46.30;22.00;;;;;;;-1.35;75.30;100009.54;107119;1256;70100;-39
2023/01/13 08:42:03;;;;;;;45.70;21.60;;;;;;;-1.33;75.25;100003.90;107101;1256;71128;-40
2023/01/13 08:44:30;;;;;;;44.60;21.40;;;;;;;-1.31;75.20;100004.33;107221;1256;60962;-39
2023/01/13 12:49:05;;;;;;;33.00;20.40;;;;;;;-0.46;77.92;99915.02;105285;1281;613692;-38
2023/01/13 12:52:09;;;;;;;33.10;20.20;;;;;;;-0.11;75.73;99919.56;106575;1264;214551;-37
2023/01/13 12:54:39;;;;;;;31.90;18.90;;;;;;;-0.29;75.76;99923.88;106621;1266;59121;-38
2023/01/13 12:57:33;;;;;;;32.00;19.10;;;;;;;-0.34;75.48;99923.20;106759;1265;73111;-38
2023/01/13 13:00:03;;;;;;;33.70;19.30;;;;;;;-0.34;75.75;99922.24;106652;1265;67860;-37
2023/01/13 13:02:31;;;;;;;35.10;20.40;;;;;;;-0.33;75.84;99926.77;106745;1266;74542;-38
2023/01/13 13:05:22;;;;;;;35.60;19.90;;;;;;;-0.34;75.89;99915.42;106713;1266;61836;-37
2023/01/13 13:08:11;;;;;;;32.80;19.20;;;;;;;-0.25;75.74;99925.45;106610;1266;62467;-37
2023/01/13 13:10:43;;;;;;;38.40;20.40;;;;;;;-0.25;75.37;99928.80;105840;1266;1003068;-37
2023/01/13 13:13:21;;;;;;;35.10;19.40;;;;;;;-0.32;75.15;99929.89;106637;1265;70250;-38
2023/01/13 13:15:49;;;;;;;33.50;19.10;;;;;;;-0.28;75.01;99923.02;106664;1266;72815;-37
2023/01/13 13:18:16;;;;;;;36.80;19.70;;;;;;;-0.23;74.51;99922.41;106781;1264;60252;-38
2023/01/13 13:20:53;;;;;;;39.40;20.80;;;;;;;-0.26;74.15;99920.29;106725;1270;62595;-38
2023/01/13 13:23:34;;;;;;;37.90;20.70;;;;;;;-0.33;74.32;99925.11;106611;1266;71745;-37
2023/01/13 13:26:44;;;;;;;42.40;21.40;;;;;;;-0.39;74.40;99925.63;106619;1270;70213;-37
2023/01/13 13:29:18;;;;;;;39.00;21.00;;;;;;;-0.47;74.47;99921.66;106679;1266;73851;-37
2023/01/13 13:32:04;;;;;;;36.40;20.40;;;;;;;-0.52;74.79;99924.77;106703;1266;63457;-37
2023/01/13 13:34:36;;;;;;;36.10;19.30;;;;;;;-0.45;74.66;99925.43;106722;1266;60358;-37
2023/01/13 13:37:06;;;;;;;36.60;19.80;;;;;;;-0.38;74.71;99921.25;106747;1266;75232;-38
2023/01/13 13:48:25;;;;;;;40.90;21.40;;;;;;;-0.34;74.52;99916.70;106737;1265;62607;-38
2023/01/13 13:51:01;;;;;;;34.70;19.30;;;;;;;-0.38;74.37;99925.13;106665;1266;74505;-37
2023/01/13 13:53:33;;;;;;;38.30;20.70;;;;;;;-0.34;74.27;99925.55;106726;1266;70619;-37
2023/01/13 13:56:01;;;;;;;33.40;18.20;;;;;;;-0.31;73.99;99930.01;106742;1266;74918;-37
2023/01/13 13:58:30;;;;;;;35.20;19.60;;;;;;;-0.34;74.00;99933.38;106773;1266;60830;-37
2023/01/13 14:00:57;;;;;;;35.70;19.40;;;;;;;-0.37;74.02;99929.66;106775;1265;60285;-38
2023/01/13 14:03:30;;;;;;;33.40;19.50;;;;;;;-0.46;73.89;99916.34;105896;1271;1003452;-38
2023/01/13 14:05:58;;;;;;;36.40;20.80;;;;;;;-0.48;73.88;99915.91;106783;1264;69901;-38
2023/01/13 14:08:36;;;;;;;37.20;20.10;;;;;;;-0.53;73.99;99913.32;106705;1266;74537;-38
2023/01/13 14:11:26;;;;;;;32.20;18.10;;;;;;;-0.57;73.99;99909.29;106724;1265;62737;-38
2023/01/13 14:14:04;;;;;;;34.00;18.60;;;;;;;-0.48;73.92;99908.94;106704;1265;61034;-38
2023/01/13 14:16:32;;;;;;;34.00;17.90;;;;;;;-0.47;73.96;99907.65;106756;1267;73017;-38
2023/01/13 14:19:02;;;;;;;32.50;18.60;;;;;;;-0.49;73.96;99904.31;106639;1265;70418;-38
2023/01/13 14:21:29;;;;;;;31.80;18.50;;;;;;;-0.52;73.99;99908.15;106659;1266;74502;-38
2023/01/13 14:23:58;;;;;;;34.10;19.30;;;;;;;-0.56;74.17;99903.05;106702;1265;60067;-37
2023/01/13 14:26:27;;;;;;;32.20;18.20;;;;;;;-0.61;74.11;99896.52;106724;1266;62525;-38
2023/01/13 14:28:54;;;;;;;28.10;16.80;;;;;;;-0.63;74.10;99902.45;106638;1265;75388;-37
2023/01/13 14:31:21;;;;;;;28.50;17.90;;;;;;;-0.59;74.00;99895.94;106650;1266;70129;-37
2023/01/13 14:34:00;;;;;;;28.20;16.20;;;;;;;-0.56;74.22;99902.20;106592;1266;74530;-38
2023/01/13 14:36:30;;;;;;;35.30;18.40;;;;;;;-0.58;74.17;99898.16;106585;1266;59903;-38
2023/01/13 14:39:04;;;;;;;30.90;18.40;;;;;;;-0.60;74.41;99894.55;106728;1266;59941;-37
2023/01/13 14:41:52;;;;;;;35.10;19.70;;;;;;;-0.59;74.56;99894.55;106706;1266;74973;-37
2023/01/13 14:44:27;;;;;;;32.70;17.20;;;;;;;-0.59;74.53;99896.36;106726;1266;69830;-37
2023/01/13 14:47:16;;;;;;;32.60;17.00;;;;;;;-0.62;74.35;99896.38;106733;1266;74558;-38
2023/01/13 14:49:50;;;;;;;26.60;16.80;;;;;;;-0.58;74.26;99899.39;106734;1266;63558;-38
2023/01/13 14:52:22;;;;;;;26.90;16.50;;;;;;;-0.53;74.31;99901.60;106734;1266;62586;-38
2023/01/13 14:55:11;;;;;;;31.80;18.40;;;;;;;-0.52;74.36;99905.23;106694;1265;74347;-38
2023/01/13 14:57:40;;;;;;;31.90;17.30;;;;;;;-0.51;74.41;99906.23;106609;1264;67740;-38
2023/01/13 15:00:13;;;;;;;33.00;18.70;;;;;;;-0.53;74.38;99904.10;106625;1266;74096;-37
2023/01/13 15:02:41;;;;;;;29.40;18.10;;;;;;;-0.53;74.56;99904.42;106717;1266;60608;-37
2023/01/13 15:05:18;;;;;;;36.50;18.80;;;;;;;-0.55;74.31;99898.64;106668;1266;61200;-37
2023/01/13 15:07:49;;;;;;;32.50;18.20;;;;;;;-0.55;74.55;99899.58;106593;1266;73548;-38
2023/01/13 15:10:17;;;;;;;28.90;16.60;;;;;;;-0.47;74.48;99892.41;106663;1266;70736;-38
2023/01/13 15:12:44;;;;;;;28.00;17.60;;;;;;;-0.42;74.32;99894.85;106673;1266;71432;-38
2023/01/13 15:15:34;;;;;;;30.30;18.60;;;;;;;-0.42;74.44;99897.84;106627;1265;59831;-38
2023/01/13 15:18:20;;;;;;;31.60;18.10;;;;;;;-0.41;74.36;99902.30;106709;1264;62453;-38
2023/01/13 15:20:49;;;;;;;36.60;18.70;;;;;;;-0.41;74.43;99901.34;106713;1268;74284;-38
2023/01/13 15:23:17;;;;;;;40.00;20.10;;;;;;;-0.41;74.35;99904.59;106748;1266;70203;-39
2023/01/13 15:25:45;;;;;;;31.50;19.80;;;;;;;-0.42;74.39;99898.46;106765;1266;72051;-38
2023/01/13 15:28:20;;;;;;;29.50;18.30;;;;;;;-0.40;74.52;99893.98;106691;1266;63225;-38
2023/01/13 15:30:48;;;;;;;31.10;17.30;;;;;;;-0.33;74.06;99896.55;106660;1268;60189;-38
2023/01/13 15:33:15;;;;;;;32.70;17.80;;;;;;;-0.32;73.92;99895.96;106705;1265;74044;-38
2023/01/13 15:35:44;;;;;;;29.20;17.70;;;;;;;-0.34;74.11;99891.14;106724;1266;70106;-38
2023/01/13 15:38:13;;;;;;;22.70;13.80;;;;;;;-0.37;74.10;99890.18;106766;1268;74070;-38
2023/01/13 15:40:41;;;;;;;32.50;19.20;;;;;;;-0.44;74.11;99878.60;106680;1269;61236;-38
2023/01/13 15:48:49;;;;;;;35.60;17.60;;;;;;;-0.51;74.39;99891.69;107144;1257;69915;-38
2023/01/13 15:51:20;;;;;;;32.70;18.90;;;;;;;-0.46;74.42;99896.09;107110;1257;74411;-38
2023/01/13 15:53:48;;;;;;;32.00;18.80;;;;;;;-0.40;74.21;99892.17;107137;1257;60663;-38
2023/01/13 15:56:21;;;;;;;31.20;17.30;;;;;;;-0.40;74.21;99895.58;107158;1258;59853;-38
2023/01/13 15:58:48;;;;;;;28.80;17.60;;;;;;;-0.42;74.17;99894.36;107184;1257;72445;-38
2023/01/13 16:01:15;;;;;;;31.20;18.40;;;;;;;-0.45;74.49;99890.23;107154;1257;67618;-38
2023/01/13 20:22:05;;;;;;;28.50;19.60;;;;;;;-0.91;79.94;99880.85;105127;1281;613606;-38
2023/01/13 20:24:33;;;;;;;28.30;18.50;;;;;;;-0.55;77.44;99875.09;106478;1266;205001;-39
2023/01/13 20:27:01;;;;;;;30.10;18.80;;;;;;;-0.63;77.67;99873.85;106621;1265;60812;-39
2023/01/13 20:29:28;;;;;;;32.20;18.70;;;;;;;-0.61;77.69;99875.92;106724;1266;74710;-39
2023/01/13 20:31:55;;;;;;;26.40;17.40;;;;;;;-0.59;77.48;99878.10;106720;1265;70005;-39
2023/01/13 20:34:23;;;;;;;29.20;18.90;;;;;;;-0.60;77.44;99874.05;106733;1266;74715;-39
2023/01/13 20:36:50;;;;;;;30.70;18.70;;;;;;;-0.61;77.00;99876.88;106727;1265;59451;-39